FW3760 Weather Reports


Display with metric or nautical units.
time (UTC)temp
F
wind
direction
speed
MPH
gust
MPH
rain 1hr
in
rain 24hr
in
rain mn
in
humidity
%
barometer
mb
20221004191007 61 343 4.0 16.0 0.00 0.00 0.00 87 1025.5
20221004190507 61 64 1.0 9.0 0.00 0.00 0.00 86 1025.3
20221004190007 61 69 1.0 9.0 0.00 0.00 0.00 86 1025.3
20221004185507 62 10 0.0 2.0 0.00 0.00 0.00 85 1025.2
20221004185007 62 338 2.0 9.0 0.00 0.00 0.00 84 1025.1
20221004184507 62 340 6.0 12.0 0.00 0.00 0.00 84 1025.1
20221004184007 62 337 9.0 16.0 0.00 0.00 0.00 84 1025.2
20221004183507 62 338 8.0 16.0 0.00 0.00 0.00 83 1025.1
20221004183007 62 34 5.0 16.0 0.00 0.00 0.00 82 1025.1
20221004182507 62 109 3.0 7.0 0.00 0.00 0.00 81 1024.9
20221004182007 62 107 3.0 7.0 0.00 0.00 0.00 82 1025.0
20221004181507 62 114 2.0 7.0 0.00 0.00 0.00 82 1024.9
20221004181007 62 116 3.0 7.0 0.00 0.00 0.00 83 1024.8
20221004180507 62 113 4.0 7.0 0.00 0.00 0.00 83 1024.8
20221004175508 62 105 3.0 9.0 0.00 0.00 0.00 83 1024.7
20221004175007 62 98 3.0 7.0 0.00 0.00 0.00 83 1024.8
20221004174507 62 105 3.0 7.0 0.00 0.00 0.00 83 1024.8
20221004174008 62 108 3.0 9.0 0.00 0.00 0.00 83 1024.8
20221004173507 62 102 4.0 9.0 0.00 0.00 0.00 83 1024.7
20221004173007 62 109 3.0 7.0 0.00 0.00 0.00 83 1024.7
20221004162507 63 102 1.0 2.0 0.00 0.00 0.00 80 1024.7
20221004162007 62 120 0.0 2.0 0.00 0.00 0.00 80 1024.7
20221004161507 62 129 0.0 2.0 0.00 0.00 0.00 82 1024.8
20221004161007 62 140 0.0 2.0 0.00 0.00 0.00 82 1024.8
20221004160007 62 145 0.0 2.0 0.00 0.00 0.00 82 1024.9
20221004155507 62 0 0.0 0.0 0.00 0.00 0.00 83 1024.9
20221004155007 62 159 0.0 2.0 0.00 0.00 0.00 83 1025.1
20221004154007 62 0 0.0 0.0 0.00 0.00 0.00 83 1025.1
20221004153507 62 0 0.0 0.0 0.00 0.00 0.00 83 1025.1
20221004153007 62 0 0.0 0.0 0.00 0.00 0.00 82 1025.2
20221004152507 62 164 0.0 2.0 0.00 0.00 0.00 83 1025.2
20221004151007 62 0 0.0 0.0 0.00 0.00 0.00 81 1025.3
20221004145507 62 82 0.0 2.0 0.00 0.00 0.00 80 1025.3
20221004145007 62 83 0.0 2.0 0.00 0.00 0.00 79 1025.2
20221004144507 63 82 0.0 2.0 0.00 0.00 0.00 79 1025.3
20221004144007 63 82 0.0 2.0 0.00 0.00 0.00 77 1025.3
20221004143507 63 75 0.0 2.0 0.00 0.00 0.00 76 1025.2
20221004143007 63 75 0.0 2.0 0.00 0.00 0.00 76 1025.3
20221004142507 63 74 0.0 2.0 0.00 0.00 0.00 76 1025.4
20221004142007 63 74 0.0 2.0 0.00 0.00 0.00 76 1025.5
20221004141507 63 73 0.0 2.0 0.00 0.00 0.00 78 1025.4
20221004141007 63 74 0.0 2.0 0.00 0.00 0.00 79 1025.4
20221004140507 63 77 0.0 2.0 0.00 0.00 0.00 79 1025.3
20221004140008 63 118 0.0 2.0 0.00 0.00 0.00 80 1025.4
20221004135507 63 120 0.0 2.0 0.00 0.00 0.00 80 1025.4
20221004135007 63 121 1.0 5.0 0.00 0.00 0.00 79 1025.3
20221004134508 63 121 1.0 5.0 0.00 0.00 0.00 80 1025.4
20221004134007 63 119 1.0 5.0 0.00 0.00 0.00 80 1025.4
20221004133507 63 126 1.0 5.0 0.00 0.00 0.00 81 1025.3
20221004133007 63 143 1.0 5.0 0.00 0.00 0.00 81 1025.4
20221004132508 62 142 0.0 5.0 0.00 0.00 0.00 82 1025.3
20221004132007 62 142 0.0 2.0 0.00 0.00 0.00 82 1025.2
20221004131007 62 234 0.0 2.0 0.00 0.00 0.00 84 1025.2
20221004130507 61 316 0.0 2.0 0.00 0.00 0.00 85 1025.2
20221004130008 61 318 0.0 2.0 0.00 0.00 0.00 85 1025.2
20221004125507 61 0 0.0 0.0 0.00 0.00 0.00 86 1025.3
20221004125007 61 0 0.0 0.0 0.00 0.00 0.00 85 1025.3
20221004124507 61 318 0.0 2.0 0.00 0.00 0.00 86 1025.2
20221004123507 61 68 0.0 2.0 0.00 0.00 0.00 86 1025.2
20221004123007 61 68 0.0 2.0 0.00 0.00 0.00 86 1025.2
20221004122508 61 0 0.0 0.0 0.00 0.00 0.00 85 1025.1
20221004122007 61 0 0.0 0.0 0.00 0.00 0.00 85 1025.0
20221004121507 61 0 0.0 0.0 0.00 0.00 0.00 85 1024.9
20221004120007 61 0 0.0 0.0 0.00 0.00 0.00 85 1024.8
20221004115507 61 0 0.0 0.0 0.00 0.00 0.00 85 1024.8
20221004115007 61 0 0.0 0.0 0.00 0.00 0.00 85 1024.7
20221004114508 61 0 0.0 0.0 0.00 0.00 0.00 84 1024.7
20221004114007 61 0 0.0 0.0 0.00 0.00 0.00 84 1024.6
20221004113507 61 0 0.0 0.0 0.00 0.00 0.00 84 1024.6
20221004112507 61 0 0.0 0.0 0.00 0.00 0.00 84 1024.6
20221004112007 61 0 0.0 0.0 0.00 0.00 0.00 84 1024.7
20221004111507 61 0 0.0 0.0 0.00 0.00 0.00 84 1024.7
20221004111007 61 0 0.0 0.0 0.00 0.00 0.00 84 1024.7
20221004110508 61 0 0.0 0.0 0.00 0.00 0.00 84 1024.7
20221004110008 61 0 0.0 0.0 0.00 0.00 0.00 84 1024.8
20221004105507 61 0 0.0 0.0 0.00 0.00 0.00 84 1024.8
20221004105007 61 0 0.0 0.0 0.00 0.00 0.00 84 1024.9
20221004104507 61 0 0.0 0.0 0.00 0.00 0.00 84 1024.8
20221004104007 61 0 0.0 0.0 0.00 0.00 0.00 84 1024.9
20221004103008 61 0 0.0 0.0 0.00 0.00 0.00 83 1024.7
20221004102507 61 0 0.0 0.0 0.00 0.00 0.00 83 1024.7
20221004102007 61 0 0.0 0.0 0.00 0.00 0.00 83 1024.6
20221004101507 61 0 0.0 0.0 0.00 0.00 0.00 83 1024.6
20221004101008 61 0 0.0 0.0 0.00 0.00 0.00 82 1024.5
20221004100507 61 0 0.0 0.0 0.00 0.00 0.00 83 1024.5
20221004100007 61 0 0.0 0.0 0.00 0.00 0.00 82 1024.5
20221004095507 61 0 0.0 0.0 0.00 0.00 0.00 82 1024.4
20221004095007 61 0 0.0 0.0 0.00 0.00 0.00 81 1024.3
20221004094007 62 0 0.0 0.0 0.00 0.00 0.00 81 1024.1
20221004093507 62 0 0.0 0.0 0.00 0.00 0.00 81 1024.1
20221004093007 62 0 0.0 0.0 0.00 0.00 0.00 80 1024.0
20221004092507 62 0 0.0 0.0 0.00 0.00 0.00 80 1024.0
20221004092007 62 0 0.0 0.0 0.00 0.00 0.00 80 1023.9
20221004091507 62 0 0.0 0.0 0.00 0.00 0.00 79 1023.8
20221004091007 62 0 0.0 0.0 0.00 0.00 0.00 79 1023.7
20221004090507 62 0 0.0 0.0 0.00 0.00 0.00 77 1023.6
20221004090007 62 0 0.0 0.0 0.00 0.00 0.00 77 1023.5
20221004085507 62 0 0.0 0.0 0.00 0.00 0.00 77 1023.5
20221004085007 62 0 0.0 0.0 0.00 0.00 0.00 77 1023.3
20221004084507 62 0 0.0 0.0 0.00 0.00 0.00 76 1023.2
20221004084007 62 0 0.0 0.0 0.00 0.00 0.00 76 1023.1
20221004083506 63 0 0.0 0.0 0.00 0.00 0.00 76 1022.9
20221004083006 63 0 0.0 0.0 0.00 0.00 0.00 76 1022.9
20221004082508 63 0 0.0 0.0 0.00 0.00 0.00 76 1022.8
20221004082007 63 0 0.0 0.0 0.00 0.00 0.00 75 1022.7
20221004081508 63 70 0.0 2.0 0.00 0.00 0.00 75 1022.7
20221004081007 63 71 0.0 2.0 0.00 0.00 0.00 74 1022.5
20221004080507 63 71 0.0 2.0 0.00 0.00 0.00 75 1022.3
20221004080007 64 70 0.0 2.0 0.00 0.00 0.00 75 1022.3
20221004074506 64 71 0.0 2.0 0.00 0.00 0.00 73 1022.2
20221004074006 64 71 0.0 2.0 0.00 0.00 0.00 73 1022.2
20221004073507 64 71 0.0 2.0 0.00 0.00 0.00 73 1022.1
20221004073006 64 71 0.0 2.0 0.00 0.00 0.00 72 1022.1
20221004072507 64 71 0.0 2.0 0.00 0.00 0.00 71 1022.1
20221004072007 64 71 0.0 2.0 0.00 0.00 0.00 70 1022.1
20221004071507 64 69 0.0 2.0 0.00 0.00 0.00 69 1022.0
20221004071007 64 67 0.0 2.0 0.00 0.00 0.00 67 1021.8
20221004070507 64 62 0.0 2.0 0.00 0.00 0.00 68 1021.7
20221004070007 64 62 0.0 2.0 0.00 0.00 0.00 68 1021.6
20221004065507 64 0 0.0 0.0 0.00 0.00 0.00 69 1021.4
20221004065007 65 0 0.0 0.0 0.00 0.00 0.00 71 1021.3
20221004064507 65 339 2.0 9.0 0.00 0.00 0.00 68 1021.2
20221004064007 65 340 5.0 9.0 0.00 0.00 0.00 68 1021.3
20221004063508 65 352 5.0 9.0 0.00 0.00 0.00 68 1021.2
20221004063006 65 356 4.0 9.0 0.00 0.00 0.00 67 1021.2
20221004062507 65 345 4.0 9.0 0.00 0.00 0.00 68 1021.1
20221004061507 65 353 6.0 7.0 0.00 0.00 0.00 68 1020.9
20221004061007 65 349 6.0 9.0 0.00 0.00 0.00 67 1020.9
20221004060507 65 353 6.0 9.0 0.00 0.00 0.00 71 1020.8
20221004060008 65 351 7.0 9.0 0.00 0.00 0.00 68 1020.8
20221004055506 65 351 7.0 9.0 0.00 0.00 0.00 69 1020.8
20221004055007 65 1 8.0 12.0 0.00 0.00 0.00 69 1020.8
20221004054507 66 352 7.0 12.0 0.00 0.00 0.00 67 1020.7
20221004054007 66 338 7.0 7.0 0.00 0.00 0.00 69 1020.7
20221004053506 66 348 7.0 7.0 0.00 0.00 0.00 66 1020.7
20221004053007 66 1 7.0 12.0 0.00 0.00 0.00 68 1020.7
20221004052507 66 349 8.0 12.0 0.00 0.00 0.00 69 1020.7
20221004052007 66 343 8.0 12.0 0.00 0.00 0.00 69 1020.6
20221004051507 66 347 8.0 12.0 0.00 0.00 0.00 69 1020.5
20221004051006 66 343 7.0 9.0 0.00 0.00 0.00 69 1020.6
20221004050507 66 338 6.0 7.0 0.00 0.00 0.00 69 1020.5
20221004050007 66 336 6.0 7.0 0.00 0.00 0.00 67 1020.5
20221004045506 66 332 6.0 9.0 0.00 0.00 0.00 66 1020.4
20221004045007 67 338 6.0 9.0 0.00 0.00 0.00 68 1020.4
20221004044007 66 345 6.0 7.0 0.00 0.00 0.00 69 1020.3
20221004043506 66 345 6.0 7.0 0.00 0.00 0.00 69 1020.3
20221004043007 66 336 6.0 9.0 0.00 0.00 0.00 69 1020.4
20221004042507 66 331 7.0 9.0 0.00 0.00 0.00 69 1020.4
20221004042007 66 337 7.0 7.0 0.00 0.00 0.00 69 1020.3
20221004041506 66 347 6.0 7.0 0.00 0.00 0.00 71 1020.4
20221004041007 66 348 6.0 9.0 0.00 0.00 0.00 69 1020.4
20221004040507 66 344 6.0 9.0 0.00 0.00 0.00 70 1020.5
20221004035507 66 348 7.0 7.0 0.00 0.00 0.00 67 1020.6
20221004035007 66 351 7.0 9.0 0.00 0.00 0.00 67 1020.7
20221004034507 66 342 7.0 9.0 0.00 0.00 0.00 69 1020.7
20221004034006 66 339 7.0 9.0 0.00 0.00 0.00 68 1020.8
20221004033507 66 342 7.0 9.0 0.00 0.00 0.00 69 1020.8
20221004033007 66 346 7.0 9.0 0.00 0.00 0.00 69 1020.8
20221004032507 66 349 7.0 9.0 0.00 0.00 0.00 69 1020.8
20221004032006 66 344 7.0 9.0 0.00 0.00 0.00 67 1020.9
20221004031507 66 339 7.0 7.0 0.00 0.00 0.00 70 1020.9
20221004030507 66 347 7.0 9.0 0.00 0.00 0.00 69 1021.1
20221004030007 67 340 7.0 9.0 0.00 0.00 0.00 68 1021.1
20221004025007 67 341 7.0 7.0 0.00 0.00 0.00 67 1021.1
20221004024007 67 350 7.0 9.0 0.00 0.00 0.00 70 1021.3
20221004023007 66 342 7.0 7.0 0.00 0.00 0.00 71 1021.2
20221004022507 66 330 8.0 14.0 0.00 0.01 0.00 72 1021.2
20221004021506 66 331 8.0 12.0 0.00 0.01 0.00 70 1021.4
20221004020506 66 335 7.0 9.0 0.00 0.01 0.00 72 1021.4
20221004015007 66 332 8.0 9.0 0.00 0.01 0.00 73 1021.5
20221004014506 66 332 8.0 9.0 0.00 0.01 0.00 72 1021.5
20221004014007 66 335 8.0 9.0 0.00 0.01 0.00 74 1021.4
20221004012506 66 350 8.0 9.0 0.00 0.01 0.00 72 1021.8
20221004011506 66 8 7.0 7.0 0.00 0.01 0.00 72 1021.9
20221004011007 66 3 6.0 7.0 0.00 0.01 0.00 71 1022.0
20221004010506 66 351 7.0 7.0 0.00 0.01 0.00 71 1022.0
20221004005506 66 353 6.0 7.0 0.00 0.01 0.00 71 1022.1
20221004005007 66 1 7.0 7.0 0.00 0.01 0.00 70 1022.1
20221004004506 66 1 7.0 7.0 0.00 0.01 0.00 69 1022.1
20221004004006 66 355 7.0 7.0 0.00 0.01 0.00 70 1022.2
20221004003507 67 343 7.0 7.0 0.00 0.01 0.00 70 1022.2
20221004003006 66 340 7.0 9.0 0.00 0.01 0.00 71 1022.3
20221004002507 66 341 7.0 9.0 0.00 0.01 0.00 70 1022.3
20221004001507 66 337 7.0 9.0 0.00 0.01 0.00 71 1022.4
20221004001007 66 336 7.0 9.0 0.00 0.01 0.00 71 1022.4
20221004000506 67 337 7.0 9.0 0.00 0.01 0.00 69 1022.4
20221004000007 66 338 6.0 7.0 0.00 0.01 0.00 68 1022.4
20221003235506 67 324 5.0 7.0 0.00 0.01 0.00 67 1022.6
20221003235007 66 309 4.0 9.0 0.00 0.01 0.00 61 1022.6
20221003234506 66 306 5.0 9.0 0.00 0.01 0.00 62 1022.6
20221003233506 66 317 7.0 7.0 0.00 0.01 0.00 62 1022.6
20221003233007 66 321 5.0 7.0 0.00 0.01 0.00 62 1022.5
20221003232007 66 341 4.0 7.0 0.00 0.01 0.00 67 1022.4
20221003231506 65 347 4.0 7.0 0.00 0.01 0.00 68 1022.3
20221003230506 65 329 3.0 5.0 0.00 0.01 0.00 71 1022.4
20221003230007 65 325 4.0 7.0 0.00 0.01 0.00 72 1022.4
20221003225506 64 326 4.0 7.0 0.00 0.01 0.00 72 1022.4
20221003225007 64 330 3.0 7.0 0.00 0.01 0.00 72 1022.4
20221003224506 65 333 3.0 7.0 0.00 0.01 0.00 72 1022.4
20221003224006 64 336 1.0 7.0 0.00 0.01 0.00 72 1022.5
20221003223506 64 344 1.0 2.0 0.00 0.01 0.00 71 1022.5
20221003223006 64 329 1.0 5.0 0.00 0.01 0.00 73 1022.5
20221003222506 63 309 0.0 5.0 0.00 0.01 0.00 70 1022.5
20221003222006 63 315 1.0 7.0 0.00 0.01 0.00 71 1022.6
20221003221506 63 314 1.0 7.0 0.00 0.01 0.00 71 1022.6
20221003221006 62 316 1.0 5.0 0.00 0.01 0.00 72 1022.6
20221003220006 61 310 3.0 7.0 0.00 0.01 0.00 72 1022.7
20221003215507 61 304 2.0 7.0 0.00 0.01 0.00 74 1022.7
20221003215006 60 308 4.0 9.0 0.00 0.01 0.00 74 1022.8
20221003213506 60 308 2.0 7.0 0.00 0.01 0.00 77 1022.7
20221003213007 59 306 1.0 7.0 0.00 0.01 0.00 78 1022.6
20221003212506 58 303 1.0 7.0 0.00 0.01 0.00 79 1022.6
20221003212006 58 312 0.0 2.0 0.00 0.01 0.00 81 1022.5
20221003211506 57 332 0.0 2.0 0.00 0.01 0.00 83 1022.5
20221003211006 56 82 0.0 2.0 0.00 0.01 0.00 84 1022.5
20221003210506 56 82 0.0 2.0 0.00 0.01 0.00 85 1022.5
20221003205506 54 0 0.0 0.0 0.00 0.01 0.00 87 1022.4
20221003205006 54 0 0.0 0.0 0.00 0.01 0.00 87 1022.3
20221003204506 53 0 0.0 0.0 0.00 0.01 0.00 88 1022.3
20221003204006 53 0 0.0 0.0 0.00 0.01 0.00 89 1022.3
20221003203506 53 0 0.0 0.0 0.00 0.01 0.00 90 1022.3
20221003202506 52 142 0.0 2.0 0.00 0.01 0.00 89 1022.2
20221003202006 52 142 0.0 2.0 0.00 0.01 0.00 89 1022.1
20221003201508 52 142 0.0 2.0 0.00 0.01 0.00 89 1022.1
20221003200510 51 0 0.0 0.0 0.00 0.01 0.00 89 1021.9
20221003195008 51 142 0.0 2.0 0.00 0.01 0.00 89 1021.7
20221003192509 51 142 1.0 2.0 0.00 0.01 0.00 89 1021.3
20221003192009 51 142 1.0 2.0 0.00 0.01 0.00 89 1021.3
20221003191508 51 149 1.0 2.0 0.00 0.01 0.00 89 1021.1